Aviation Digital Data Service (ADDS)

Output produced by METARs form (0916 UTC 20 January 2018)
found at http://aviationweather.gov/adds/metars/
 
KBPT 200853Z AUTO 10005KT 8SM FEW014 BKN022 OVC027 10/09 A3013 RMK AO2 SLP202 60000 T01000089 57008